createdAt,value
2022-10-24T00:02:08.758Z,97683.66
2022-10-24T00:04:36.093Z,97679.00
2022-10-24T00:07:03.329Z,97678.38
2022-10-24T00:09:29.729Z,97669.72
2022-10-24T00:11:56.264Z,97674.81
2022-10-24T00:14:23.045Z,97683.13
2022-10-24T00:16:49.483Z,97680.50
2022-10-24T00:19:15.968Z,97681.56
2022-10-24T00:21:42.426Z,97674.63
2022-10-24T00:24:09.160Z,97668.22
2022-10-24T00:26:35.773Z,97657.53
2022-10-24T00:29:02.238Z,97661.53
2022-10-24T00:31:28.694Z,97660.22
2022-10-24T00:33:56.661Z,97655.72
2022-10-24T00:36:24.403Z,97647.88
2022-10-24T00:38:51.355Z,97640.56
2022-10-24T00:41:18.908Z,97641.72
2022-10-24T00:43:45.983Z,97641.59
2022-10-24T00:46:13.313Z,97650.09
2022-10-24T00:48:41.719Z,97640.06
2022-10-24T00:51:21.598Z,97645.84
2022-10-24T00:53:50.127Z,97657.16
2022-10-24T00:56:18.086Z,97653.22
2022-10-24T00:58:44.841Z,97640.47
2022-10-24T01:01:12.105Z,97645.38
2022-10-24T01:03:38.784Z,97646.44
2022-10-24T01:06:23.290Z,97631.69
2022-10-24T01:09:03.730Z,97636.56
2022-10-24T01:11:42.451Z,97632.91
2022-10-24T01:14:18.127Z,97650.84
2022-10-24T01:16:47.593Z,97641.16
2022-10-24T01:19:32.382Z,97632.75
2022-10-24T01:22:02.664Z,97631.44
2022-10-24T01:24:47.937Z,97637.22
2022-10-24T01:27:17.395Z,97634.75
2022-10-24T01:29:47.624Z,97639.69
2022-10-24T01:32:21.213Z,97641.84
2022-10-24T01:34:57.021Z,97626.81
2022-10-24T01:37:29.732Z,97630.50
2022-10-24T01:39:59.542Z,97631.16
2022-10-24T01:42:27.935Z,97637.38
2022-10-24T01:44:56.034Z,97627.28
2022-10-24T01:47:27.869Z,97631.47
2022-10-24T01:49:59.318Z,97633.06
2022-10-24T01:52:28.558Z,97626.19
2022-10-24T01:54:55.047Z,97620.78
2022-10-24T01:57:26.662Z,97619.66
2022-10-24T01:59:53.086Z,97614.91
2022-10-24T02:02:34.986Z,97611.34
2022-10-24T02:05:06.281Z,97620.72
2022-10-24T02:07:34.036Z,97623.28
2022-10-24T02:10:02.728Z,97609.88
2022-10-24T02:12:30.040Z,97607.31
2022-10-24T02:15:00.601Z,97608.44
2022-10-24T02:19:59.317Z,97609.59
2022-10-24T02:22:44.376Z,97605.50
2022-10-24T02:25:12.834Z,97605.81
2022-10-24T02:27:43.515Z,97595.16
2022-10-24T02:30:19.062Z,97605.09
2022-10-24T02:32:47.511Z,97605.50
2022-10-24T02:35:15.097Z,97606.16
2022-10-24T02:37:47.801Z,97599.03
2022-10-24T02:40:15.771Z,97600.84
2022-10-24T02:42:43.325Z,97607.06
2022-10-24T02:45:12.154Z,97599.28
2022-10-24T02:47:40.139Z,97603.13
2022-10-24T02:50:07.507Z,97588.13
2022-10-24T02:52:34.930Z,97601.59
2022-10-24T02:55:01.333Z,97607.69
2022-10-24T02:57:28.182Z,97615.22
2022-10-24T02:59:54.585Z,97622.53
2022-10-24T03:02:21.270Z,97636.22
2022-10-24T03:04:47.666Z,97644.16
2022-10-24T03:07:14.098Z,97642.31
2022-10-24T03:09:40.621Z,97644.69
2022-10-24T03:12:07.099Z,97653.31
2022-10-24T03:14:33.639Z,97649.16
2022-10-24T03:17:00.113Z,97644.94
2022-10-24T03:19:26.536Z,97635.63
2022-10-24T03:21:52.948Z,97634.56
2022-10-24T03:24:26.983Z,97631.91
2022-10-24T03:27:03.868Z,97642.03
2022-10-24T03:29:30.327Z,97650.53
2022-10-24T03:31:56.748Z,97652.59
2022-10-24T03:34:23.304Z,97664.09
2022-10-24T03:36:49.755Z,97663.03
2022-10-24T03:39:16.246Z,97664.09
2022-10-24T03:41:42.707Z,97653.94
2022-10-24T03:44:09.164Z,97664.72
2022-10-24T03:46:35.615Z,97678.69
2022-10-24T03:51:33.406Z,97662.13
2022-10-24T03:53:59.810Z,97672.56
2022-10-24T03:56:26.369Z,97671.50
2022-10-24T03:58:52.781Z,97661.28
2022-10-24T04:01:19.497Z,97672.25
2022-10-24T04:03:46.237Z,97659.06
2022-10-24T04:06:13.085Z,97666.25
2022-10-24T04:08:39.781Z,97673.34
2022-10-24T04:11:06.624Z,97666.91
2022-10-24T04:13:33.251Z,97673.06
2022-10-24T04:15:59.707Z,97677.69
2022-10-24T04:18:26.194Z,97668.94
2022-10-24T04:20:52.679Z,97675.31
2022-10-24T04:23:19.074Z,97671.09
2022-10-24T04:25:46.198Z,97677.56
2022-10-24T04:28:12.602Z,97674.94
2022-10-24T04:30:39.105Z,97667.72
2022-10-24T04:33:05.737Z,97681.09
2022-10-24T04:35:32.229Z,97681.41
2022-10-24T04:37:58.739Z,97674.00
2022-10-24T04:40:25.378Z,97671.09
2022-10-24T04:42:51.851Z,97666.09
2022-10-24T04:45:18.500Z,97666.16
2022-10-24T04:47:45.182Z,97671.84
2022-10-24T04:50:11.823Z,97671.38
2022-10-24T04:52:38.325Z,97671.09
2022-10-24T04:55:04.973Z,97668.59
2022-10-24T04:57:31.404Z,97667.91
2022-10-24T04:59:57.845Z,97678.63
2022-10-24T05:02:24.297Z,97674.78
2022-10-24T05:04:51.023Z,97680.25
2022-10-24T05:07:17.533Z,97689.16
2022-10-24T05:09:44.005Z,97698.38
2022-10-24T05:12:10.454Z,97693.84
2022-10-24T05:14:36.929Z,97707.88
2022-10-24T05:17:03.453Z,97704.81
2022-10-24T05:19:29.988Z,97694.75
2022-10-24T05:21:56.411Z,97706.31
2022-10-24T05:24:22.871Z,97703.63
2022-10-24T05:26:49.343Z,97697.78
2022-10-24T05:29:15.836Z,97707.56
2022-10-24T05:31:42.290Z,97702.69
2022-10-24T05:34:08.736Z,97704.03
2022-10-24T05:36:35.169Z,97718.75
2022-10-24T05:39:01.620Z,97722.50
2022-10-24T05:41:28.047Z,97712.97
2022-10-24T05:43:54.464Z,97725.25
2022-10-24T05:46:20.906Z,97731.16
2022-10-24T05:48:47.341Z,97748.94
2022-10-24T05:51:13.779Z,97750.56
2022-10-24T05:53:40.186Z,97752.94
2022-10-24T05:56:06.700Z,97743.94
2022-10-24T05:58:33.578Z,97751.91
2022-10-24T06:01:00.893Z,97750.91
2022-10-24T06:03:27.359Z,97754.09
2022-10-24T06:05:53.867Z,97751.31
2022-10-24T06:08:20.330Z,97765.09
2022-10-24T06:10:47.882Z,97772.06
2022-10-24T06:13:14.521Z,97780.03
2022-10-24T06:15:41.688Z,97789.16
2022-10-24T06:18:08.107Z,97806.19
2022-10-24T06:20:34.556Z,97805.50
2022-10-24T06:23:00.991Z,97808.34
2022-10-24T06:25:27.446Z,97804.78
2022-10-24T06:27:53.910Z,97809.22
2022-10-24T06:30:20.458Z,97801.19
2022-10-24T06:32:47.391Z,97809.00
2022-10-24T06:35:15.867Z,97801.06
2022-10-24T06:37:45.723Z,97807.22
2022-10-24T06:40:14.570Z,97816.13
2022-10-24T06:42:41.019Z,97811.16
2022-10-24T06:45:07.645Z,97805.38
2022-10-24T06:47:34.127Z,97810.44
2022-10-24T06:50:00.560Z,97818.81
2022-10-24T06:52:27.013Z,97818.88
2022-10-24T06:54:53.426Z,97835.06
2022-10-24T06:57:19.859Z,97834.22
2022-10-24T06:59:46.320Z,97828.63
2022-10-24T07:02:13.920Z,97835.31
2022-10-24T07:04:40.498Z,97841.84
2022-10-24T07:07:06.984Z,97844.63
2022-10-24T07:09:33.506Z,97839.78
2022-10-24T07:12:00.001Z,97841.75
2022-10-24T07:14:26.632Z,97846.59
2022-10-24T07:16:53.106Z,97844.22
2022-10-24T07:19:19.558Z,97847.91
2022-10-24T07:21:46.007Z,97862.63
2022-10-24T07:24:12.813Z,97862.69
2022-10-24T07:26:39.258Z,97861.66
2022-10-24T07:29:05.864Z,97854.72
2022-10-24T07:31:33.575Z,97864.41
2022-10-24T07:34:00.892Z,97859.69
2022-10-24T07:36:28.150Z,97861.06
2022-10-24T07:38:56.295Z,97857.66
2022-10-24T07:41:24.339Z,97862.56
2022-10-24T07:43:51.162Z,97855.97
2022-10-24T07:46:18.527Z,97856.31
2022-10-24T07:48:44.992Z,97855.31
2022-10-24T07:51:14.516Z,97848.13
2022-10-24T07:53:41.894Z,97848.75
2022-10-24T07:56:11.868Z,97844.25
2022-10-24T07:58:38.349Z,97848.25
2022-10-24T08:01:05.912Z,97846.72
2022-10-24T08:03:32.405Z,97848.50
2022-10-24T08:05:58.906Z,97836.22
2022-10-24T08:08:35.579Z,97841.50
2022-10-24T08:11:07.521Z,97834.03
2022-10-24T08:13:33.941Z,97829.69
2022-10-24T08:16:00.417Z,97830.94
2022-10-24T08:18:30.121Z,97825.56
2022-10-24T08:20:58.214Z,97823.78
2022-10-24T08:23:25.593Z,97824.19
2022-10-24T08:25:52.399Z,97822.06
2022-10-24T08:28:18.958Z,97818.50
2022-10-24T08:30:45.358Z,97819.06
2022-10-24T08:33:15.994Z,97815.31
2022-10-24T08:35:45.289Z,97804.97
2022-10-24T08:38:12.263Z,97803.09
2022-10-24T08:40:39.751Z,97795.97
2022-10-24T08:43:06.312Z,97794.72
2022-10-24T08:45:39.095Z,97791.69
2022-10-24T08:48:08.465Z,97797.44
2022-10-24T08:50:35.530Z,97792.78
2022-10-24T08:53:04.230Z,97803.28
2022-10-24T08:55:49.356Z,97803.72
2022-10-24T08:58:18.574Z,97811.94
2022-10-24T09:00:46.274Z,97805.91
2022-10-24T09:03:17.555Z,97800.84
2022-10-24T09:05:51.880Z,97784.69
2022-10-24T09:08:23.906Z,97794.97
2022-10-24T09:10:56.355Z,97791.47
2022-10-24T09:13:25.704Z,97799.44
2022-10-24T09:15:52.273Z,97791.94
2022-10-24T09:18:21.715Z,97798.69
2022-10-24T09:20:48.622Z,97796.59
2022-10-24T09:23:16.261Z,97787.19
2022-10-24T09:25:44.905Z,97789.34
2022-10-24T09:28:12.093Z,97778.56
2022-10-24T09:30:38.647Z,97784.22
2022-10-24T09:33:13.149Z,97782.03
2022-10-24T09:35:39.986Z,97783.63
2022-10-24T09:38:25.940Z,97777.88
2022-10-24T09:40:53.678Z,97783.31
2022-10-24T09:43:26.268Z,97774.81
2022-10-24T09:46:01.353Z,97785.31
2022-10-24T09:48:46.626Z,97786.38
2022-10-24T09:51:21.660Z,97783.03
2022-10-24T09:54:07.561Z,97786.34
2022-10-24T09:56:41.125Z,97783.50
2022-10-24T09:59:26.110Z,97774.84
2022-10-24T10:01:52.724Z,97780.56
2022-10-24T10:04:19.629Z,97762.94
2022-10-24T10:06:47.675Z,97769.16
2022-10-24T10:09:15.732Z,97782.59
2022-10-24T10:11:49.388Z,97770.41
2022-10-24T10:14:28.770Z,97762.59
2022-10-24T10:16:59.458Z,97763.13
2022-10-24T10:19:26.335Z,97760.69
2022-10-24T10:21:52.747Z,97751.06
2022-10-24T10:24:46.117Z,97743.88
2022-10-24T10:27:32.060Z,97744.03
2022-10-24T10:30:18.814Z,97747.28
2022-10-24T10:33:05.745Z,97735.88
2022-10-24T10:35:33.121Z,97738.47
2022-10-24T10:38:08.533Z,97726.63
2022-10-24T10:40:44.166Z,97720.72
2022-10-24T10:43:15.755Z,97713.81
2022-10-24T10:46:00.971Z,97712.03
2022-10-24T10:48:38.473Z,97701.06
2022-10-24T10:51:08.478Z,97707.72
2022-10-24T10:53:51.183Z,97710.03
2022-10-24T10:56:24.973Z,97710.03
2022-10-24T10:58:57.164Z,97706.00
2022-10-24T11:01:32.929Z,97711.88
2022-10-24T11:04:22.355Z,97687.56
2022-10-24T11:06:51.674Z,97698.06
2022-10-24T11:09:30.257Z,97690.41
2022-10-24T11:12:03.298Z,97700.91
2022-10-24T11:14:33.069Z,97699.63
2022-10-24T11:17:19.769Z,97702.19
2022-10-24T11:19:46.181Z,97696.31
2022-10-24T11:22:17.670Z,97689.00
2022-10-24T11:24:46.902Z,97683.56
2022-10-24T11:27:16.893Z,97685.41
2022-10-24T11:29:48.942Z,97671.44
2022-10-24T11:32:38.622Z,97668.59
2022-10-24T11:35:22.421Z,97660.25
2022-10-24T11:37:50.964Z,97658.44
2022-10-24T11:40:20.430Z,97658.28
2022-10-24T11:43:02.217Z,97658.75
2022-10-24T11:45:33.066Z,97656.63
2022-10-24T11:48:26.304Z,97667.66
2022-10-24T11:50:58.739Z,97660.50
2022-10-24T11:53:31.470Z,97660.09
2022-10-24T11:56:18.001Z,97668.06
2022-10-24T11:58:59.061Z,97658.78
2022-10-24T12:01:34.125Z,97654.16
2022-10-24T12:04:19.170Z,97642.81
2022-10-24T12:07:05.540Z,97626.81
2022-10-24T12:09:35.146Z,97628.50
2022-10-24T12:12:08.603Z,97616.31
2022-10-24T12:14:47.425Z,97617.56
2022-10-24T12:17:27.101Z,97612.53
2022-10-24T12:19:53.785Z,97618.78
2022-10-24T12:22:23.701Z,97616.69
2022-10-24T12:25:01.753Z,97607.28
2022-10-24T12:27:37.083Z,97598.28
2022-10-24T12:30:09.769Z,97604.56
2022-10-24T12:32:39.603Z,97603.75
2022-10-24T12:35:30.287Z,97608.78
2022-10-24T12:37:57.545Z,97605.00
2022-10-24T12:40:42.552Z,97598.28
2022-10-24T12:43:13.879Z,97585.25
2022-10-24T12:45:40.346Z,97573.41
2022-10-24T12:48:29.191Z,97577.81
2022-10-24T12:50:58.702Z,97566.34
2022-10-24T12:53:38.868Z,97578.09
2022-10-24T12:56:07.392Z,97578.94
2022-10-24T12:58:37.769Z,97567.16
2022-10-24T13:01:10.062Z,97567.75
2022-10-24T13:03:36.515Z,97566.50
2022-10-24T13:06:06.030Z,97563.38
2022-10-24T13:08:35.565Z,97548.59
2022-10-24T13:11:21.518Z,97553.69
2022-10-24T13:13:50.007Z,97544.66
2022-10-24T13:16:21.749Z,97524.25
2022-10-24T13:18:56.516Z,97533.50
2022-10-24T13:21:26.085Z,97535.34
2022-10-24T13:23:53.029Z,97547.38
2022-10-24T13:26:38.054Z,97544.47
2022-10-24T13:29:05.700Z,97536.44
2022-10-24T13:31:32.093Z,97536.84
2022-10-24T13:34:18.009Z,97525.91
2022-10-24T13:36:45.298Z,97529.31
2022-10-24T13:39:15.418Z,97521.28
2022-10-24T13:41:44.295Z,97522.97
2022-10-24T13:44:22.647Z,97522.97
2022-10-24T13:46:54.441Z,97527.94
2022-10-24T13:49:32.769Z,97529.69
2022-10-24T13:52:28.559Z,97531.16
2022-10-24T13:55:00.403Z,97522.34
2022-10-24T13:57:28.810Z,97529.84
2022-10-24T13:59:56.926Z,97517.53
2022-10-24T14:02:27.273Z,97515.06
2022-10-24T14:04:58.356Z,97514.19
2022-10-24T14:07:29.485Z,97514.53
2022-10-24T14:10:01.214Z,97506.09
2022-10-24T14:12:30.121Z,97514.50
2022-10-24T14:14:58.743Z,97517.09
2022-10-24T14:17:33.715Z,97516.06
2022-10-24T14:20:02.055Z,97508.34
2022-10-24T14:22:34.881Z,97511.78
2022-10-24T14:25:01.466Z,97504.31
2022-10-24T14:27:28.069Z,97502.97
2022-10-24T14:30:04.241Z,97514.94
2022-10-24T14:32:31.198Z,97511.88
2022-10-24T14:34:58.662Z,97504.78
2022-10-24T14:37:33.382Z,97514.72
2022-10-24T14:40:00.318Z,97517.53
2022-10-24T14:42:27.858Z,97507.88
2022-10-24T14:44:58.283Z,97510.75
2022-10-24T14:47:29.915Z,97507.97
2022-10-24T14:49:59.554Z,97507.31
2022-10-24T14:52:36.981Z,97491.31
2022-10-24T14:55:05.865Z,97477.91
2022-10-24T14:57:34.210Z,97470.94
2022-10-24T15:00:07.090Z,97469.78
2022-10-24T15:02:42.049Z,97476.06
2022-10-24T15:05:13.720Z,97479.72
2022-10-24T15:07:44.914Z,97475.97
2022-10-24T15:10:26.046Z,97468.22
2022-10-24T15:12:53.875Z,97466.75
2022-10-24T15:15:23.526Z,97480.19
2022-10-24T15:17:50.637Z,97488.16
2022-10-24T15:20:18.609Z,97484.81
2022-10-24T15:22:50.126Z,97488.63
2022-10-24T15:27:48.874Z,97472.22
2022-10-24T15:30:16.989Z,97463.56
2022-10-24T15:32:43.766Z,97469.41
2022-10-24T15:35:10.297Z,97458.28
2022-10-24T15:37:36.706Z,97453.94
2022-10-24T15:40:19.733Z,97453.59
2022-10-24T15:42:46.320Z,97450.25
2022-10-24T15:45:13.803Z,97455.28
2022-10-24T15:47:40.217Z,97464.34
2022-10-24T15:50:06.755Z,97459.00
2022-10-24T15:52:33.281Z,97462.72
2022-10-24T15:55:00.437Z,97471.25
2022-10-24T15:57:26.882Z,97474.38
2022-10-24T15:59:53.309Z,97473.25
2022-10-24T16:02:21.463Z,97464.34
2022-10-24T16:04:47.933Z,97456.34
2022-10-24T16:07:14.378Z,97460.50
2022-10-24T16:09:41.057Z,97465.03
2022-10-24T16:12:07.624Z,97472.56
2022-10-24T16:14:34.251Z,97469.25
2022-10-24T16:17:00.750Z,97478.16
2022-10-24T16:19:27.359Z,97470.09
2022-10-24T16:21:58.222Z,97475.81
2022-10-24T16:24:25.199Z,97484.72
2022-10-24T16:26:52.065Z,97485.50
2022-10-24T16:29:18.464Z,97482.88
2022-10-24T16:31:46.838Z,97479.13
2022-10-24T16:34:13.367Z,97471.19
2022-10-24T16:36:42.898Z,97487.81
2022-10-24T16:39:09.387Z,97479.78
2022-10-24T16:41:35.968Z,97480.53
2022-10-24T16:44:03.738Z,97472.66
2022-10-24T16:46:30.283Z,97476.38
2022-10-24T16:48:56.971Z,97480.38
2022-10-24T16:51:25.358Z,97483.75
2022-10-24T16:53:51.854Z,97483.19
2022-10-24T16:56:18.301Z,97484.22
2022-10-24T16:58:44.789Z,97487.00
2022-10-24T17:01:12.881Z,97483.75
2022-10-24T17:03:39.997Z,97483.19
2022-10-24T17:06:07.045Z,97481.28
2022-10-24T17:08:33.670Z,97479.28
2022-10-24T17:11:00.796Z,97483.34
2022-10-24T17:13:27.809Z,97487.75
2022-10-24T17:15:54.358Z,97503.63
2022-10-24T17:18:23.334Z,97510.66
2022-10-24T17:20:50.019Z,97530.13
2022-10-24T17:23:17.926Z,97528.91
2022-10-24T17:25:45.657Z,97532.16
2022-10-24T17:28:13.658Z,97530.09
2022-10-24T17:30:40.184Z,97533.09
2022-10-24T17:33:07.271Z,97540.22
2022-10-24T17:35:36.008Z,97550.47
2022-10-24T17:38:37.942Z,97567.69
2022-10-24T17:41:24.742Z,97554.75
2022-10-24T17:43:51.385Z,97566.38
2022-10-24T17:46:18.399Z,97573.88
2022-10-24T17:48:44.878Z,97568.47
2022-10-24T17:51:12.176Z,97567.88
2022-10-24T17:53:38.630Z,97565.91
2022-10-24T17:56:05.279Z,97557.09
2022-10-24T17:58:31.774Z,97570.28
2022-10-24T18:00:58.193Z,97581.63
2022-10-24T18:03:24.813Z,97572.13
2022-10-24T18:05:51.374Z,97570.88
2022-10-24T18:08:18.390Z,97571.34
2022-10-24T18:10:44.817Z,97592.28
2022-10-24T18:13:11.264Z,97617.59
2022-10-24T18:15:38.098Z,97631.06
2022-10-24T18:18:04.907Z,97622.28
2022-10-24T18:20:32.151Z,97623.59
2022-10-24T18:22:59.268Z,97667.69
2022-10-24T18:25:25.766Z,97692.31
2022-10-24T18:27:52.277Z,97706.59
2022-10-24T18:30:19.554Z,97704.09
2022-10-24T18:32:46.535Z,97712.91
2022-10-24T18:35:13.248Z,97718.25
2022-10-24T18:37:39.848Z,97719.75
2022-10-24T18:40:07.822Z,97725.34
2022-10-24T18:42:43.734Z,97704.47
2022-10-24T18:45:17.592Z,97697.75
2022-10-24T18:47:44.696Z,97694.72
2022-10-24T18:50:15.633Z,97682.91
2022-10-24T18:52:54.354Z,97690.31
2022-10-24T18:55:21.954Z,97694.63
2022-10-24T18:57:49.110Z,97686.19
2022-10-24T19:00:20.393Z,97689.47
2022-10-24T19:02:53.716Z,97696.91
2022-10-24T19:05:25.236Z,97706.56
2022-10-24T19:07:52.129Z,97705.13
2022-10-24T19:10:27.973Z,97694.03
2022-10-24T19:12:54.575Z,97692.78
2022-10-24T19:15:21.441Z,97684.28
2022-10-24T19:17:48.489Z,97693.13
2022-10-24T19:20:17.013Z,97702.19
2022-10-24T19:22:43.623Z,97694.91
2022-10-24T19:25:10.219Z,97700.31
2022-10-24T19:27:37.266Z,97701.47
2022-10-24T19:30:04.521Z,97698.47
2022-10-24T19:32:31.450Z,97711.09
2022-10-24T19:34:57.889Z,97707.19
2022-10-24T19:37:25.371Z,97713.81
2022-10-24T19:39:52.097Z,97710.13
2022-10-24T19:42:18.646Z,97704.91
2022-10-24T19:47:15.620Z,97691.84
2022-10-24T19:49:42.058Z,97693.53
2022-10-24T19:52:09.573Z,97687.75
2022-10-24T19:54:36.038Z,97691.50
2022-10-24T19:57:02.437Z,97692.94
2022-10-24T19:59:33.681Z,97694.03
2022-10-24T20:02:00.572Z,97700.41
2022-10-24T20:04:27.090Z,97702.78
2022-10-24T20:06:53.573Z,97713.56
2022-10-24T20:09:19.977Z,97711.53
2022-10-24T20:11:46.397Z,97712.53
2022-10-24T20:14:12.818Z,97718.25
2022-10-24T20:16:39.290Z,97735.91
2022-10-24T20:19:06.570Z,97726.75
2022-10-24T20:21:35.282Z,97719.59
2022-10-24T20:24:01.706Z,97728.31
2022-10-24T20:26:28.130Z,97720.69
2022-10-24T20:28:55.519Z,97725.63
2022-10-24T20:31:26.681Z,97727.69
2022-10-24T20:33:53.206Z,97729.88
2022-10-24T20:36:23.170Z,97721.06
2022-10-24T20:38:49.595Z,97739.69
2022-10-24T20:41:16.017Z,97732.31
2022-10-24T20:43:42.579Z,97733.16
2022-10-24T20:46:09.024Z,97734.50
2022-10-24T20:48:35.529Z,97736.69
2022-10-24T20:51:09.945Z,97745.97
2022-10-24T20:53:36.746Z,97751.53
2022-10-24T20:56:04.466Z,97753.09
2022-10-24T20:58:30.974Z,97756.28
2022-10-24T21:00:57.504Z,97758.31
2022-10-24T21:03:23.958Z,97748.84
2022-10-24T21:05:50.365Z,97742.41
2022-10-24T21:08:16.794Z,97745.50
2022-10-24T21:10:43.213Z,97756.38
2022-10-24T21:13:09.633Z,97763.97
2022-10-24T21:15:36.040Z,97767.53
2022-10-24T21:18:02.599Z,97770.69
2022-10-24T21:20:29.012Z,97774.09
2022-10-24T21:22:55.438Z,97766.13
2022-10-24T21:25:21.864Z,97767.69
2022-10-24T21:27:48.642Z,97763.09
2022-10-24T21:30:15.943Z,97774.28
2022-10-24T21:32:42.422Z,97769.56
2022-10-24T21:35:08.899Z,97770.56
2022-10-24T21:37:35.426Z,97760.06
2022-10-24T21:40:01.872Z,97758.41
2022-10-24T21:42:30.248Z,97756.00
2022-10-24T21:44:56.664Z,97759.22
2022-10-24T21:47:23.138Z,97752.06
2022-10-24T21:49:49.558Z,97765.19
2022-10-24T21:52:15.976Z,97764.59
2022-10-24T21:54:42.410Z,97776.94
2022-10-24T21:57:08.815Z,97757.88
2022-10-24T21:59:36.098Z,97756.28
2022-10-24T22:02:02.718Z,97746.50
2022-10-24T22:04:29.294Z,97744.44
2022-10-24T22:06:55.726Z,97758.59
2022-10-24T22:09:23.799Z,97754.72
2022-10-24T22:11:50.658Z,97767.03
2022-10-24T22:14:17.939Z,97764.19
2022-10-24T22:16:44.661Z,97760.47
2022-10-24T22:19:12.313Z,97760.09
2022-10-24T22:21:40.889Z,97760.78
2022-10-24T22:24:11.664Z,97760.47
2022-10-24T22:26:38.681Z,97749.94
2022-10-24T22:29:06.169Z,97753.16
2022-10-24T22:31:32.819Z,97766.59
2022-10-24T22:33:59.457Z,97763.22
2022-10-24T22:36:38.266Z,97768.94
2022-10-24T22:39:05.625Z,97765.72
2022-10-24T22:41:32.418Z,97777.75
2022-10-24T22:43:59.001Z,97772.66
2022-10-24T22:46:43.533Z,97771.81
2022-10-24T22:49:23.799Z,97776.75
2022-10-24T22:51:50.433Z,97773.38
2022-10-24T22:54:19.362Z,97779.63
2022-10-24T22:56:46.146Z,97781.34
2022-10-24T22:59:12.680Z,97786.22
2022-10-24T23:01:42.112Z,97794.03
2022-10-24T23:04:28.430Z,97800.78
2022-10-24T23:07:10.072Z,97802.81
2022-10-24T23:09:36.504Z,97800.28
2022-10-24T23:12:07.862Z,97805.53
2022-10-24T23:14:34.527Z,97805.19
2022-10-24T23:17:01.200Z,97802.50
2022-10-24T23:19:28.934Z,97809.56
2022-10-24T23:21:58.646Z,97798.41
2022-10-24T23:24:25.241Z,97810.63
2022-10-24T23:26:51.650Z,97805.19
2022-10-24T23:29:24.603Z,97797.09
2022-10-24T23:31:51.158Z,97800.78
2022-10-24T23:34:17.729Z,97793.34
2022-10-24T23:36:44.748Z,97796.72
2022-10-24T23:39:12.890Z,97796.41
2022-10-24T23:41:39.914Z,97789.28
2022-10-24T23:44:06.618Z,97790.44
2022-10-24T23:46:37.361Z,97782.19
2022-10-24T23:49:10.035Z,97778.28
2022-10-24T23:51:50.471Z,97786.41
2022-10-24T23:54:20.960Z,97788.78
2022-10-24T23:56:47.588Z,97786.09
2022-10-24T23:59:14.009Z,97798.75
